KPIE/PIE METAR and TAF weather

Enter ICAO airport designator
Station Type Date Time Source
KPIE METAR 2019/04/19 07:53 UTC NOAA

KPIE 190753Z AUTO 16010KT 10SM CLR 24/22 A2983 RMK AO2 SLP099 T02390217


Station Type Date Time Source
KPIE Decoded METAR 2019/04/19 07:53 UTC NOAA

ST PETERSBURG/CLEARWATER, FL, United States (KPIE) 27-55N 82-41W 4M
Apr 19, 2019 - 03:53 AM EDT / 2019.04.19 0753 UTC
Wind: from the SSE (160 degrees) at 12 MPH (10 KT):0
Visibility: 10 mile(s):0
Sky conditions: clear
Temperature: 75.0 F (23.9 C)
Dew Point: 71.1 F (21.7 C)
Relative Humidity: 87%
Pressure (altimeter): 29.83 in. Hg (1010 hPa)
ob: KPIE 190753Z AUTO 16010KT 10SM CLR 24/22 A2983 RMK AO2 SLP099 T02390217
cycle: 8

Station Type Date Time Source
KPIE TAF 2019/04/19 06:22 UTC NOAA

TAF KPIE 190520Z 1906/2006 18012KT P6SM SCT050 SCT200
FM190900 18014G24KT P6SM SCT025 BKN050
FM191500 21025G35KT P6SM VCSH BKN020 OVC050
FM191700 23030G40KT 4SM TSRA SCT008CB BKN015
TEMPO 1917/1920 VRB35G45KT 2SM +TSRA BKN008CB
FM192300 26022G32KT P6SM VCSH SCT020 OVC040
FM200300 27014G24KT P6SM VCSH SCT025 BKN050

Example: see airport list